createdAt,value
2023-04-30T00:00:47.015Z,6.19
2023-04-30T00:03:13.693Z,6.25
2023-04-30T00:05:40.837Z,6.06
2023-04-30T00:08:07.420Z,6.06
2023-04-30T00:10:34.205Z,5.88
2023-04-30T00:13:00.853Z,5.94
2023-04-30T00:15:27.432Z,5.88
2023-04-30T00:17:54.046Z,5.88
2023-04-30T00:20:20.711Z,5.81
2023-04-30T00:22:47.259Z,5.81
2023-04-30T00:25:13.843Z,5.81
2023-04-30T00:27:41.114Z,5.81
2023-04-30T00:30:08.171Z,5.81
2023-04-30T00:32:34.818Z,5.81
2023-04-30T00:35:01.446Z,5.69
2023-04-30T00:37:28.000Z,5.50
2023-04-30T00:39:54.819Z,5.44
2023-04-30T00:42:21.577Z,5.44
2023-04-30T00:44:48.150Z,5.25
2023-04-30T00:47:14.819Z,5.19
2023-04-30T00:49:41.626Z,5.13
2023-04-30T00:52:08.242Z,5.19
2023-04-30T00:54:34.854Z,5.19
2023-04-30T00:57:03.060Z,5.19
2023-04-30T00:59:30.215Z,5.31
2023-04-30T01:01:56.940Z,5.38
2023-04-30T01:04:24.280Z,5.31
2023-04-30T01:06:52.016Z,5.38
2023-04-30T01:09:19.099Z,5.31
2023-04-30T01:11:50.002Z,5.25
2023-04-30T01:14:29.023Z,5.25
2023-04-30T01:17:20.446Z,5.06
2023-04-30T01:19:47.634Z,5.06
2023-04-30T01:22:23.206Z,5.19
2023-04-30T01:25:17.121Z,5.19
2023-04-30T01:28:06.622Z,5.13
2023-04-30T01:30:34.489Z,4.75
2023-04-30T01:33:02.377Z,4.88
2023-04-30T01:35:44.307Z,4.81
2023-04-30T01:38:23.040Z,4.63
2023-04-30T01:41:11.989Z,4.63
2023-04-30T01:43:40.546Z,4.75
2023-04-30T01:46:27.530Z,4.81
2023-04-30T01:49:22.671Z,4.94
2023-04-30T01:52:01.339Z,4.88
2023-04-30T01:54:46.415Z,4.88
2023-04-30T01:57:32.188Z,4.94
2023-04-30T01:59:59.020Z,4.75
2023-04-30T02:02:25.813Z,4.81
2023-04-30T02:04:52.495Z,4.81
2023-04-30T02:07:38.098Z,4.81
2023-04-30T02:10:06.511Z,4.88
2023-04-30T02:12:33.185Z,4.81
2023-04-30T02:14:59.766Z,4.88
2023-04-30T02:17:26.407Z,4.75
2023-04-30T02:19:53.349Z,4.81
2023-04-30T02:22:20.317Z,4.75
2023-04-30T02:24:47.092Z,4.69
2023-04-30T02:27:13.793Z,4.75
2023-04-30T02:29:40.384Z,4.75
2023-04-30T02:32:07.057Z,4.69
2023-04-30T02:34:33.633Z,4.63
2023-04-30T02:37:00.798Z,4.69
2023-04-30T02:39:27.373Z,4.56
2023-04-30T02:41:53.919Z,4.50
2023-04-30T02:44:21.166Z,4.44
2023-04-30T02:46:47.711Z,4.44
2023-04-30T02:49:14.305Z,4.56
2023-04-30T02:51:40.869Z,4.56
2023-04-30T02:54:07.490Z,4.63
2023-04-30T02:56:34.611Z,4.50
2023-04-30T02:59:01.500Z,4.31
2023-04-30T03:01:28.111Z,4.31
2023-04-30T03:03:54.710Z,4.13
2023-04-30T03:06:21.705Z,4.13
2023-04-30T03:08:48.528Z,4.13
2023-04-30T03:11:15.266Z,4.19
2023-04-30T03:13:43.554Z,4.06
2023-04-30T03:16:11.164Z,4.13
2023-04-30T03:18:37.797Z,4.13
2023-04-30T03:21:04.518Z,4.19
2023-04-30T03:23:31.332Z,4.19
2023-04-30T03:25:58.058Z,4.19
2023-04-30T03:28:24.716Z,4.06
2023-04-30T03:30:51.337Z,4.06
2023-04-30T03:33:17.997Z,4.00
2023-04-30T03:35:44.770Z,3.94
2023-04-30T03:38:11.413Z,3.94
2023-04-30T03:40:38.201Z,3.94
2023-04-30T03:43:05.290Z,3.94
2023-04-30T03:45:31.993Z,3.94
2023-04-30T03:47:58.608Z,4.00
2023-04-30T03:50:26.062Z,3.94
2023-04-30T03:52:52.638Z,3.94
2023-04-30T03:55:19.294Z,3.88
2023-04-30T03:57:46.230Z,3.88
2023-04-30T04:00:16.252Z,3.81
2023-04-30T04:02:43.337Z,3.81
2023-04-30T04:05:09.958Z,3.81
2023-04-30T04:07:36.530Z,3.81
2023-04-30T04:10:03.626Z,3.81
2023-04-30T04:12:30.213Z,3.75
2023-04-30T04:14:56.819Z,3.69
2023-04-30T04:17:23.408Z,3.75
2023-04-30T04:19:50.029Z,3.63
2023-04-30T04:22:16.614Z,3.69
2023-04-30T04:24:43.254Z,3.69
2023-04-30T04:27:09.896Z,3.75
2023-04-30T04:29:36.776Z,3.75
2023-04-30T04:32:05.955Z,3.75
2023-04-30T04:34:33.113Z,3.69
2023-04-30T04:36:59.756Z,3.63
2023-04-30T04:39:26.296Z,3.56
2023-04-30T04:41:53.001Z,3.56
2023-04-30T04:44:19.600Z,3.56
2023-04-30T04:46:46.371Z,3.56
2023-04-30T04:49:13.119Z,3.69
2023-04-30T04:51:39.809Z,3.75
2023-04-30T04:54:06.568Z,3.75
2023-04-30T04:56:34.111Z,3.81
2023-04-30T04:59:01.546Z,3.63
2023-04-30T05:01:28.151Z,3.75
2023-04-30T05:03:55.162Z,3.81
2023-04-30T05:06:22.047Z,3.88
2023-04-30T05:08:48.683Z,3.88
2023-04-30T05:11:15.867Z,4.06
2023-04-30T05:13:42.653Z,4.13
2023-04-30T05:16:09.298Z,4.31
2023-04-30T05:18:35.926Z,4.50
2023-04-30T05:21:02.514Z,4.63
2023-04-30T05:23:29.258Z,4.63
2023-04-30T05:25:55.928Z,4.50
2023-04-30T05:28:22.570Z,4.38
2023-04-30T05:30:49.209Z,4.50
2023-04-30T05:33:15.850Z,4.75
2023-04-30T05:35:42.403Z,4.94
2023-04-30T05:38:09.044Z,5.19
2023-04-30T05:40:35.777Z,5.31
2023-04-30T05:43:02.431Z,5.50
2023-04-30T05:45:29.152Z,5.63
2023-04-30T05:47:55.892Z,5.75
2023-04-30T05:50:22.830Z,6.06
2023-04-30T05:52:49.504Z,6.25
2023-04-30T05:55:16.192Z,6.50
2023-04-30T05:57:42.767Z,6.63
2023-04-30T06:00:09.904Z,6.81
2023-04-30T06:02:36.655Z,6.94
2023-04-30T06:05:03.921Z,7.00
2023-04-30T06:07:30.829Z,7.13
2023-04-30T06:09:57.487Z,7.25
2023-04-30T06:12:24.451Z,7.38
2023-04-30T06:14:52.029Z,7.50
2023-04-30T06:17:18.671Z,7.56
2023-04-30T06:19:45.357Z,7.50
2023-04-30T06:22:12.916Z,7.50
2023-04-30T06:24:39.465Z,7.63
2023-04-30T06:27:06.143Z,7.94
2023-04-30T06:29:32.732Z,7.94
2023-04-30T06:31:59.558Z,8.25
2023-04-30T06:34:26.701Z,8.19
2023-04-30T06:36:53.303Z,8.25
2023-04-30T06:39:19.908Z,8.31
2023-04-30T06:41:47.411Z,8.31
2023-04-30T06:44:14.116Z,8.38
2023-04-30T06:46:40.943Z,8.31
2023-04-30T06:49:07.718Z,8.56
2023-04-30T06:51:34.355Z,8.75
2023-04-30T06:54:00.937Z,8.75
2023-04-30T06:56:27.520Z,8.81
2023-04-30T06:58:54.077Z,8.81
2023-04-30T07:01:20.699Z,8.88
2023-04-30T07:03:47.456Z,8.94
2023-04-30T07:06:14.635Z,9.00
2023-04-30T07:08:41.564Z,9.19
2023-04-30T07:11:08.146Z,9.38
2023-04-30T07:13:34.881Z,9.44
2023-04-30T07:16:01.714Z,9.56
2023-04-30T07:18:28.509Z,9.69
2023-04-30T07:20:55.253Z,9.69
2023-04-30T07:23:21.832Z,9.63
2023-04-30T07:25:48.736Z,9.69
2023-04-30T07:28:15.486Z,9.88
2023-04-30T07:30:42.621Z,10.00
2023-04-30T07:33:09.560Z,10.13
2023-04-30T07:35:36.688Z,10.19
2023-04-30T07:38:04.805Z,10.31
2023-04-30T07:40:36.347Z,10.50
2023-04-30T07:43:04.576Z,10.63
2023-04-30T07:45:31.871Z,10.81
2023-04-30T07:47:58.579Z,10.88
2023-04-30T07:50:25.423Z,10.75
2023-04-30T07:52:51.982Z,10.81
2023-04-30T07:55:18.712Z,10.50
2023-04-30T07:57:45.289Z,10.50
2023-04-30T08:00:13.457Z,10.56
2023-04-30T08:02:40.988Z,11.13
2023-04-30T08:05:08.179Z,11.13
2023-04-30T08:07:34.810Z,11.00
2023-04-30T08:10:01.403Z,10.94
2023-04-30T08:12:28.018Z,11.00
2023-04-30T08:15:05.374Z,11.13
2023-04-30T08:17:32.826Z,11.25
2023-04-30T08:20:00.694Z,11.44
2023-04-30T08:22:27.389Z,11.31
2023-04-30T08:24:55.652Z,11.63
2023-04-30T08:27:23.316Z,11.56
2023-04-30T08:29:49.908Z,11.81
2023-04-30T08:32:18.800Z,11.88
2023-04-30T08:34:46.267Z,11.88
2023-04-30T08:37:12.873Z,11.75
2023-04-30T08:39:39.543Z,12.06
2023-04-30T08:42:14.560Z,12.06
2023-04-30T08:44:44.025Z,12.13
2023-04-30T08:47:14.557Z,11.94
2023-04-30T08:49:41.781Z,12.13
2023-04-30T08:52:08.654Z,12.19
2023-04-30T08:54:37.064Z,12.31
2023-04-30T08:57:04.697Z,12.25
2023-04-30T08:59:31.628Z,12.38
2023-04-30T09:02:00.940Z,12.69
2023-04-30T09:04:28.101Z,12.69
2023-04-30T09:06:58.992Z,13.06
2023-04-30T09:09:31.717Z,13.00
2023-04-30T09:12:19.807Z,13.13
2023-04-30T09:15:13.182Z,13.13
2023-04-30T09:17:40.054Z,12.81
2023-04-30T09:20:12.276Z,12.94
2023-04-30T09:22:40.941Z,13.13
2023-04-30T09:25:09.763Z,13.25
2023-04-30T09:27:36.420Z,13.44
2023-04-30T09:30:03.741Z,13.50
2023-04-30T09:32:30.447Z,13.75
2023-04-30T09:34:57.098Z,13.69
2023-04-30T09:37:38.179Z,13.19
2023-04-30T09:40:05.182Z,13.19
2023-04-30T09:42:31.826Z,13.56
2023-04-30T09:44:58.527Z,13.44
2023-04-30T09:47:31.803Z,13.38
2023-04-30T09:50:00.140Z,13.44
2023-04-30T09:52:26.961Z,13.94
2023-04-30T09:54:53.635Z,14.13
2023-04-30T09:57:23.975Z,14.25
2023-04-30T09:59:53.162Z,14.38
2023-04-30T10:02:23.442Z,14.38
2023-04-30T10:04:58.608Z,14.25
2023-04-30T10:07:34.288Z,14.25
2023-04-30T10:10:08.819Z,14.31
2023-04-30T10:12:55.458Z,14.25
2023-04-30T10:15:32.604Z,14.56
2023-04-30T10:18:11.226Z,14.38
2023-04-30T10:20:39.988Z,14.88
2023-04-30T10:23:07.297Z,14.81
2023-04-30T10:25:34.673Z,14.94
2023-04-30T10:28:03.207Z,14.94
2023-04-30T10:30:32.774Z,15.06
2023-04-30T10:33:22.019Z,15.00
2023-04-30T10:35:59.319Z,15.06
2023-04-30T10:38:29.702Z,15.31
2023-04-30T10:41:01.317Z,15.19
2023-04-30T10:43:31.108Z,15.38
2023-04-30T10:45:58.713Z,15.38
2023-04-30T10:48:26.747Z,15.38
2023-04-30T10:50:56.703Z,14.94
2023-04-30T10:53:26.206Z,14.88
2023-04-30T10:56:09.136Z,15.19
2023-04-30T10:58:38.838Z,15.50
2023-04-30T11:01:14.818Z,15.81
2023-04-30T11:03:43.820Z,15.56
2023-04-30T11:06:16.020Z,15.19
2023-04-30T11:08:46.746Z,15.81
2023-04-30T11:11:23.765Z,15.50
2023-04-30T11:14:01.624Z,15.94
2023-04-30T11:16:35.137Z,15.75
2023-04-30T11:19:13.886Z,15.81
2023-04-30T11:22:05.174Z,16.00
2023-04-30T11:24:51.541Z,15.75
2023-04-30T11:27:26.123Z,16.00
2023-04-30T11:29:54.860Z,16.00
2023-04-30T11:32:23.858Z,16.19
2023-04-30T11:34:51.114Z,16.56
2023-04-30T11:37:28.119Z,16.56
2023-04-30T11:39:57.237Z,16.19
2023-04-30T11:42:23.871Z,16.38
2023-04-30T11:44:50.437Z,16.38
2023-04-30T11:47:17.015Z,16.38
2023-04-30T11:49:45.255Z,16.31
2023-04-30T11:52:14.816Z,16.25
2023-04-30T11:54:41.415Z,16.50
2023-04-30T11:57:08.127Z,16.31
2023-04-30T11:59:42.140Z,16.69
2023-04-30T12:02:10.460Z,16.81
2023-04-30T12:04:39.033Z,16.75
2023-04-30T12:07:08.799Z,16.94
2023-04-30T12:09:57.237Z,16.94
2023-04-30T12:12:30.479Z,17.13
2023-04-30T12:14:57.874Z,17.13
2023-04-30T12:17:32.733Z,17.13
2023-04-30T12:19:59.724Z,17.00
2023-04-30T12:22:27.605Z,17.06
2023-04-30T12:24:55.633Z,16.88
2023-04-30T12:27:22.896Z,17.06
2023-04-30T12:29:50.856Z,17.19
2023-04-30T12:32:19.229Z,17.19
2023-04-30T12:34:46.035Z,17.44
2023-04-30T12:37:16.481Z,17.50
2023-04-30T12:39:43.458Z,17.88
2023-04-30T12:42:10.273Z,17.38
2023-04-30T12:44:44.746Z,17.00
2023-04-30T12:47:12.162Z,17.75
2023-04-30T12:49:39.224Z,18.19
2023-04-30T12:52:09.473Z,17.69
2023-04-30T12:54:38.067Z,17.38
2023-04-30T12:57:07.436Z,17.56
2023-04-30T12:59:36.910Z,18.13
2023-04-30T13:02:11.184Z,17.94
2023-04-30T13:04:38.467Z,17.88
2023-04-30T13:07:05.430Z,17.56
2023-04-30T13:09:34.361Z,18.00
2023-04-30T13:12:01.208Z,18.31
2023-04-30T13:14:27.777Z,17.56
2023-04-30T13:16:54.691Z,17.56
2023-04-30T13:19:21.325Z,17.75
2023-04-30T13:21:47.955Z,18.56
2023-04-30T13:24:14.586Z,17.81
2023-04-30T13:26:41.277Z,18.00
2023-04-30T13:29:07.846Z,17.69
2023-04-30T13:31:34.696Z,17.75
2023-04-30T13:34:01.598Z,17.81
2023-04-30T13:36:29.263Z,17.81
2023-04-30T13:38:55.887Z,17.56
2023-04-30T13:41:22.546Z,17.38
2023-04-30T13:43:49.279Z,17.88
2023-04-30T13:46:16.730Z,17.63
2023-04-30T13:48:43.378Z,18.31
2023-04-30T13:51:09.952Z,18.19
2023-04-30T13:53:37.278Z,18.50
2023-04-30T13:56:04.043Z,18.44
2023-04-30T13:58:30.678Z,18.44
2023-04-30T14:00:57.243Z,18.00
2023-04-30T14:03:23.981Z,18.13
2023-04-30T14:05:50.945Z,18.31
2023-04-30T14:08:17.566Z,17.94
2023-04-30T14:10:44.555Z,18.00
2023-04-30T14:13:11.135Z,19.06
2023-04-30T14:15:38.625Z,19.19
2023-04-30T14:18:05.426Z,19.06
2023-04-30T14:20:32.066Z,18.75
2023-04-30T14:22:59.794Z,18.56
2023-04-30T14:25:27.474Z,17.94
2023-04-30T14:27:54.110Z,17.56
2023-04-30T14:30:20.843Z,17.38
2023-04-30T14:32:47.474Z,17.31
2023-04-30T14:35:14.057Z,17.13
2023-04-30T14:37:40.790Z,17.19
2023-04-30T14:40:09.576Z,17.13
2023-04-30T14:42:36.136Z,17.19
2023-04-30T14:45:02.848Z,17.63
2023-04-30T14:47:29.615Z,17.94
2023-04-30T14:49:58.790Z,18.19
2023-04-30T14:52:25.380Z,18.25
2023-04-30T14:54:52.067Z,18.00
2023-04-30T14:57:19.095Z,17.81
2023-04-30T14:59:45.716Z,17.75
2023-04-30T15:02:12.406Z,17.69
2023-04-30T15:04:39.110Z,17.63
2023-04-30T15:07:05.790Z,17.75
2023-04-30T15:09:32.506Z,17.81
2023-04-30T15:11:59.091Z,17.75
2023-04-30T15:14:25.716Z,17.75
2023-04-30T15:16:52.310Z,17.44
2023-04-30T15:19:19.016Z,17.44
2023-04-30T15:21:47.129Z,17.31
2023-04-30T15:24:16.101Z,17.13
2023-04-30T15:26:42.680Z,17.19
2023-04-30T15:29:10.540Z,17.13
2023-04-30T15:31:37.249Z,17.19
2023-04-30T15:34:03.925Z,17.06
2023-04-30T15:36:32.339Z,17.38
2023-04-30T15:38:59.347Z,17.63
2023-04-30T15:41:25.992Z,17.50
2023-04-30T15:43:52.614Z,17.63
2023-04-30T15:46:19.309Z,17.81
2023-04-30T15:48:45.939Z,17.88
2023-04-30T15:51:13.160Z,18.19
2023-04-30T15:53:40.890Z,18.19
2023-04-30T15:56:08.940Z,18.25
2023-04-30T15:58:35.531Z,17.94
2023-04-30T16:01:02.119Z,17.94
2023-04-30T16:03:28.793Z,17.94
2023-04-30T16:05:55.982Z,17.88
2023-04-30T16:08:22.769Z,17.69
2023-04-30T16:10:49.427Z,17.94
2023-04-30T16:13:16.025Z,17.88
2023-04-30T16:15:42.638Z,17.94
2023-04-30T16:18:09.958Z,17.81
2023-04-30T16:20:37.341Z,17.75
2023-04-30T16:23:04.825Z,17.31
2023-04-30T16:25:31.704Z,17.19
2023-04-30T16:27:58.432Z,17.25
2023-04-30T16:30:25.125Z,17.13
2023-04-30T16:32:51.784Z,17.13
2023-04-30T16:35:18.525Z,17.19
2023-04-30T16:37:45.133Z,17.19
2023-04-30T16:40:11.914Z,17.19
2023-04-30T16:42:38.499Z,17.13
2023-04-30T16:45:05.632Z,17.06
2023-04-30T16:47:32.310Z,17.19
2023-04-30T16:49:58.992Z,17.00
2023-04-30T16:52:25.771Z,17.13
2023-04-30T16:54:52.366Z,17.06
2023-04-30T16:57:19.029Z,16.88
2023-04-30T16:59:46.733Z,16.75
2023-04-30T17:02:13.353Z,16.69
2023-04-30T17:04:40.006Z,16.81
2023-04-30T17:07:07.031Z,16.81
2023-04-30T17:09:33.844Z,16.69
2023-04-30T17:12:00.439Z,16.56
2023-04-30T17:14:27.124Z,16.63
2023-04-30T17:16:53.698Z,16.63
2023-04-30T17:19:20.268Z,16.50
2023-04-30T17:21:46.890Z,16.56
2023-04-30T17:24:13.510Z,16.56
2023-04-30T17:26:40.141Z,16.50
2023-04-30T17:29:06.850Z,16.50
2023-04-30T17:31:33.608Z,16.38
2023-04-30T17:34:00.379Z,16.31
2023-04-30T17:36:30.384Z,16.19
2023-04-30T17:38:57.039Z,16.06
2023-04-30T17:41:24.352Z,15.94
2023-04-30T17:43:51.715Z,16.00
2023-04-30T17:46:18.386Z,15.94
2023-04-30T17:48:45.155Z,15.88
2023-04-30T17:51:12.040Z,15.81
2023-04-30T17:53:38.657Z,15.69
2023-04-30T17:56:05.679Z,15.63
2023-04-30T17:58:32.669Z,15.69
2023-04-30T18:01:01.522Z,15.56
2023-04-30T18:03:28.543Z,15.63
2023-04-30T18:05:55.537Z,15.69
2023-04-30T18:08:22.244Z,15.56
2023-04-30T18:10:48.961Z,15.50
2023-04-30T18:13:15.609Z,15.31
2023-04-30T18:15:42.610Z,15.19
2023-04-30T18:18:09.732Z,15.19
2023-04-30T18:20:37.000Z,15.06
2023-04-30T18:23:05.502Z,15.13
2023-04-30T18:25:34.228Z,15.00
2023-04-30T18:28:01.351Z,14.94
2023-04-30T18:30:27.998Z,14.88
2023-04-30T18:32:54.614Z,14.88
2023-04-30T18:35:22.160Z,14.75
2023-04-30T18:37:49.788Z,14.63
2023-04-30T18:40:16.527Z,14.44
2023-04-30T18:42:43.141Z,14.38
2023-04-30T18:45:11.385Z,14.38
2023-04-30T18:47:38.241Z,14.19
2023-04-30T18:50:06.479Z,14.19
2023-04-30T18:52:33.407Z,14.06
2023-04-30T18:54:59.975Z,13.94
2023-04-30T18:57:26.526Z,13.94
2023-04-30T18:59:53.393Z,13.88
2023-04-30T19:02:21.843Z,13.81
2023-04-30T19:04:49.831Z,13.81
2023-04-30T19:07:16.955Z,13.75
2023-04-30T19:09:45.163Z,13.75
2023-04-30T19:12:12.087Z,13.69
2023-04-30T19:14:38.650Z,13.69
2023-04-30T19:17:05.440Z,13.56
2023-04-30T19:19:32.417Z,13.38
2023-04-30T19:21:59.110Z,13.25
2023-04-30T19:24:25.801Z,13.13
2023-04-30T19:26:52.520Z,12.94
2023-04-30T19:29:19.716Z,12.81
2023-04-30T19:31:46.660Z,12.81
2023-04-30T19:34:13.970Z,12.75
2023-04-30T19:36:44.091Z,12.44
2023-04-30T19:39:11.783Z,12.25
2023-04-30T19:41:39.205Z,12.31
2023-04-30T19:44:06.320Z,12.19
2023-04-30T19:46:32.955Z,12.06
2023-04-30T19:48:59.988Z,11.88
2023-04-30T19:51:26.596Z,11.88
2023-04-30T19:53:53.247Z,11.75
2023-04-30T19:56:20.789Z,11.63
2023-04-30T19:58:48.379Z,11.56
2023-04-30T20:01:15.093Z,11.50
2023-04-30T20:03:42.526Z,11.38
2023-04-30T20:06:10.140Z,11.38
2023-04-30T20:08:37.566Z,11.44
2023-04-30T20:11:04.227Z,11.38
2023-04-30T20:13:31.121Z,11.25
2023-04-30T20:15:58.162Z,11.13
2023-04-30T20:18:24.962Z,10.94
2023-04-30T20:20:52.310Z,10.94
2023-04-30T20:23:20.312Z,10.88
2023-04-30T20:25:46.989Z,10.75
2023-04-30T20:28:18.187Z,10.81
2023-04-30T20:30:44.974Z,10.75
2023-04-30T20:33:12.863Z,10.69
2023-04-30T20:35:41.157Z,10.63
2023-04-30T20:38:08.569Z,10.63
2023-04-30T20:40:35.374Z,10.50
2023-04-30T20:43:02.041Z,10.50
2023-04-30T20:45:28.701Z,10.50
2023-04-30T20:47:55.756Z,10.56
2023-04-30T20:50:22.493Z,10.44
2023-04-30T20:52:49.121Z,10.44
2023-04-30T20:55:15.819Z,10.38
2023-04-30T20:57:42.444Z,10.38
2023-04-30T21:00:09.593Z,10.25
2023-04-30T21:02:36.480Z,10.25
2023-04-30T21:05:05.468Z,10.25
2023-04-30T21:07:35.907Z,10.13
2023-04-30T21:10:08.343Z,10.13
2023-04-30T21:12:35.457Z,9.94
2023-04-30T21:15:02.202Z,10.00
2023-04-30T21:17:29.139Z,9.75
2023-04-30T21:19:56.903Z,9.81
2023-04-30T21:22:24.585Z,9.75
2023-04-30T21:24:54.164Z,9.69
2023-04-30T21:27:21.588Z,9.75
2023-04-30T21:29:48.473Z,9.69
2023-04-30T21:32:15.172Z,9.69
2023-04-30T21:34:41.844Z,9.69
2023-04-30T21:37:08.474Z,9.69
2023-04-30T21:39:35.053Z,9.63
2023-04-30T21:42:01.693Z,9.56
2023-04-30T21:44:31.593Z,9.50
2023-04-30T21:46:58.945Z,9.50
2023-04-30T21:49:26.104Z,9.38
2023-04-30T21:51:52.700Z,9.31
2023-04-30T21:54:19.346Z,9.38
2023-04-30T21:56:46.014Z,9.31
2023-04-30T21:59:12.645Z,9.31
2023-04-30T22:01:40.905Z,9.25
2023-04-30T22:04:07.529Z,9.19
2023-04-30T22:06:34.825Z,9.13
2023-04-30T22:09:01.989Z,9.13
2023-04-30T22:11:29.128Z,9.06
2023-04-30T22:13:55.754Z,9.00
2023-04-30T22:16:22.882Z,9.00
2023-04-30T22:18:49.566Z,8.94
2023-04-30T22:21:16.333Z,8.88
2023-04-30T22:23:42.915Z,8.88
2023-04-30T22:26:11.215Z,8.81
2023-04-30T22:28:38.289Z,8.81
2023-04-30T22:31:05.036Z,8.75
2023-04-30T22:33:38.170Z,8.69
2023-04-30T22:36:06.155Z,8.69
2023-04-30T22:38:33.393Z,8.75
2023-04-30T22:41:00.518Z,8.63
2023-04-30T22:43:30.136Z,8.63
2023-04-30T22:45:58.705Z,8.56
2023-04-30T22:48:27.634Z,8.56
2023-04-30T22:50:55.448Z,8.50
2023-04-30T22:53:22.415Z,8.38
2023-04-30T22:55:49.691Z,8.38
2023-04-30T22:58:17.084Z,8.31
2023-04-30T23:00:43.712Z,8.31
2023-04-30T23:03:10.343Z,8.25
2023-04-30T23:05:37.009Z,8.19
2023-04-30T23:08:04.509Z,8.25
2023-04-30T23:10:31.317Z,8.25
2023-04-30T23:12:58.764Z,8.19
2023-04-30T23:15:26.187Z,8.19
2023-04-30T23:17:54.503Z,8.13
2023-04-30T23:20:22.644Z,8.13
2023-04-30T23:22:49.534Z,8.13
2023-04-30T23:25:16.921Z,8.06
2023-04-30T23:27:44.919Z,7.94
2023-04-30T23:30:11.921Z,7.94
2023-04-30T23:32:38.622Z,7.94
2023-04-30T23:35:07.575Z,7.88
2023-04-30T23:37:34.563Z,7.81
2023-04-30T23:40:01.507Z,7.56
2023-04-30T23:42:28.083Z,7.44
2023-04-30T23:44:54.682Z,7.50
2023-04-30T23:47:21.267Z,7.50
2023-04-30T23:49:48.081Z,7.50
2023-04-30T23:52:14.748Z,7.31
2023-04-30T23:54:41.377Z,7.44
2023-04-30T23:57:08.046Z,7.38
2023-04-30T23:59:34.645Z,7.38
